Time;durP1;ratioP1;P1;durP2;ratioP2;P2;SDS_P1;SDS_P2;PMS_P1;PMS_P2;Temp;Humidity;BMP_temperature;BMP_pressure;BME280_temperature;BME280_humidity;BME280_pressure;Samples;Min_cycle;Max_cycle;Signal;HPM_P1;HPM_P2
2022/11/16 00:02:03;;;;;;;74.80;51.67;;;;;;;9.51;69.91;99505.34;4935968;28;96812;-83
2022/11/16 00:04:28;;;;;;;80.03;51.50;;;;;;;9.48;69.64;99508.09;4974957;28;97334;-82
2022/11/16 00:06:54;;;;;;;80.57;54.05;;;;;;;9.46;69.74;99497.69;4937577;28;97980;-83
2022/11/16 00:09:22;;;;;;;79.90;52.55;;;;;;;9.40;70.00;99491.88;4936708;28;101524;-84
2022/11/16 00:11:56;;;;;;;88.78;55.15;;;;;;;9.21;69.74;99460.34;4937777;28;97172;-83
2022/11/16 00:14:23;;;;;;;81.00;53.55;;;;;;;9.50;70.12;99507.13;4951729;28;96837;-83
2022/11/16 00:16:48;;;;;;;77.68;52.28;;;;;;;9.44;69.77;99493.44;4921285;28;101296;-83
2022/11/16 00:19:14;;;;;;;77.22;50.55;;;;;;;9.45;69.76;99498.63;4933850;28;101301;-85
2022/11/16 00:21:40;;;;;;;79.43;51.00;;;;;;;9.49;69.89;99499.34;4985425;28;97919;-83
2022/11/16 00:24:05;;;;;;;82.18;52.25;;;;;;;9.44;69.79;99493.44;4953478;28;97191;-82
2022/11/16 00:26:31;;;;;;;80.45;54.38;;;;;;;9.38;70.06;99478.84;4936131;28;101492;-82
2022/11/16 00:28:56;;;;;;;99.38;68.47;;;;;;;9.39;69.97;99482.28;4953678;28;101098;-82
2022/11/16 00:31:22;;;;;;;83.68;60.78;;;;;;;9.36;70.30;99480.66;4936810;28;96726;-83
2022/11/16 00:33:48;;;;;;;81.97;56.63;;;;;;;9.29;70.33;99469.59;4952335;28;97046;-83
2022/11/16 00:36:14;;;;;;;82.85;54.05;;;;;;;9.34;70.43;99473.78;4945945;28;101456;-84
2022/11/16 00:38:40;;;;;;;77.97;55.30;;;;;;;9.33;70.69;99467.69;4934170;28;98459;-82
2022/11/16 00:41:06;;;;;;;82.63;55.83;;;;;;;9.40;69.96;99463.06;4934042;28;97376;-82
2022/11/16 00:43:33;;;;;;;83.57;53.08;;;;;;;9.43;70.33;99462.94;4931584;28;96865;-82
2022/11/16 00:45:58;;;;;;;81.55;55.85;;;;;;;9.39;70.40;99464.81;4961457;28;101222;-82
2022/11/16 00:48:24;;;;;;;83.05;55.35;;;;;;;9.39;70.39;99461.34;4942798;28;101202;-83
2022/11/16 00:50:50;;;;;;;75.18;53.33;;;;;;;9.40;70.14;99466.53;4937053;28;96751;-83
2022/11/16 00:53:17;;;;;;;75.20;52.30;;;;;;;9.42;69.97;99464.66;4965775;28;97036;-83
2022/11/16 00:55:44;;;;;;;75.50;52.47;;;;;;;9.43;70.59;99466.41;4921887;28;101392;-82
2022/11/16 00:58:11;;;;;;;77.03;50.97;;;;;;;9.34;70.02;99444.97;4935743;28;101119;-83
2022/11/16 01:00:39;;;;;;;78.47;50.92;;;;;;;9.48;70.80;99466.19;4921002;28;97368;-82
2022/11/16 01:03:05;;;;;;;71.10;48.70;;;;;;;9.44;70.66;99470.72;4936773;28;97010;-84
2022/11/16 01:05:31;;;;;;;71.55;48.20;;;;;;;9.43;70.81;99460.31;4919687;28;101971;-83
2022/11/16 01:07:57;;;;;;;71.75;48.45;;;;;;;9.48;70.72;99463.56;4966899;28;100813;-83
2022/11/16 01:10:24;;;;;;;75.00;47.53;;;;;;;9.49;70.30;99467.91;4933479;28;97104;-83
2022/11/16 01:12:51;;;;;;;69.35;46.30;;;;;;;9.50;70.73;99459.97;4997792;28;97197;-82
2022/11/16 01:15:18;;;;;;;72.90;47.63;;;;;;;9.53;70.49;99465.06;4958379;28;101536;-82
2022/11/16 01:17:43;;;;;;;72.55;47.70;;;;;;;9.51;71.14;99455.56;4954403;28;101698;-82
2022/11/16 01:20:13;;;;;;;70.22;47.42;;;;;;;9.47;70.48;99454.84;4959269;28;97019;-82
2022/11/16 01:22:39;;;;;;;76.50;48.58;;;;;;;9.52;71.14;99439.78;4922641;28;96908;-84
2022/11/16 01:25:06;;;;;;;67.05;47.30;;;;;;;9.48;70.99;99429.50;4920949;28;101481;-84
2022/11/16 01:27:31;;;;;;;72.80;50.10;;;;;;;9.58;71.04;99445.69;4960470;28;101341;-83
2022/11/16 01:29:59;;;;;;;69.18;46.42;;;;;;;9.56;70.74;99445.75;4907143;28;96703;-82
2022/11/16 01:32:25;;;;;;;73.65;47.10;;;;;;;9.55;71.15;99436.19;4932803;28;96960;-83
2022/11/16 01:34:51;;;;;;;75.55;48.30;;;;;;;9.57;71.16;99443.97;4941609;28;101477;-82
2022/11/16 01:37:25;;;;;;;68.03;47.67;;;;;;;9.50;71.19;99430.31;4951946;28;101555;-83
2022/11/16 01:39:50;;;;;;;75.28;48.20;;;;;;;9.53;71.19;99451.13;4936354;28;97058;-83
2022/11/16 01:42:22;;;;;;;69.13;46.65;;;;;;;9.45;70.93;99438.38;4968871;28;97059;-83
2022/11/16 01:45:02;;;;;;;71.82;48.65;;;;;;;9.55;71.11;99449.28;4965184;28;101494;-83
2022/11/16 01:47:27;;;;;;;67.18;46.17;;;;;;;9.55;71.07;99446.69;4950663;28;102282;-83
2022/11/16 01:50:09;;;;;;;73.20;47.33;;;;;;;9.37;71.56;99419.50;4937553;28;97150;-82
2022/11/16 01:52:39;;;;;;;71.38;47.00;;;;;;;9.49;71.37;99418.97;4927317;28;97126;-82
2022/11/16 01:55:05;;;;;;;71.85;48.30;;;;;;;9.50;71.49;99430.31;4985095;28;98330;-83
2022/11/16 01:57:43;;;;;;;69.28;45.75;;;;;;;9.46;71.59;99423.50;4936596;28;99975;-84
2022/11/16 02:00:10;;;;;;;74.57;47.15;;;;;;;9.49;71.53;99426.00;4950400;28;99894;-85
2022/11/16 02:02:39;;;;;;;69.35;46.65;;;;;;;9.51;71.37;99425.00;4962506;28;97124;-83
2022/11/16 02:05:06;;;;;;;74.95;47.85;;;;;;;9.54;71.72;99431.88;4963942;28;100110;-82
2022/11/16 02:10:39;;;;;;;67.10;44.05;;;;;;;9.45;71.90;99406.94;4942020;28;96961;-83
2022/11/16 02:13:16;;;;;;;70.30;46.33;;;;;;;9.55;71.55;99414.38;4961645;28;96904;-83
2022/11/16 02:15:50;;;;;;;63.67;45.40;;;;;;;9.52;71.57;99408.34;4921564;28;101633;-83
2022/11/16 02:18:54;;;;;;;66.28;46.03;;;;;;;9.50;71.66;99406.72;4965834;28;101577;-84
2022/11/16 02:21:25;;;;;;;60.65;42.95;;;;;;;9.46;71.98;99403.41;4930555;28;96863;-83
2022/11/16 02:24:03;;;;;;;63.75;42.90;;;;;;;9.49;71.65;99415.50;4959822;28;96826;-82
2022/11/16 02:27:05;;;;;;;65.00;43.88;;;;;;;9.51;72.04;99430.25;4928299;28;101327;-83
2022/11/16 02:29:44;;;;;;;;;;;;;;;9.49;72.13;99411.13;4943527;28;101138;-83
2022/11/16 02:32:33;;;;;;;58.15;40.80;;;;;;;9.48;72.06;99412.03;4936284;28;97204;-84
2022/11/16 02:35:06;;;;;;;63.63;42.90;;;;;;;9.50;72.12;99414.59;4934152;28;97537;-83
2022/11/16 02:37:35;;;;;;;63.72;42.60;;;;;;;9.49;72.31;99398.00;4939452;28;101699;-83
2022/11/16 02:40:06;;;;;;;59.50;41.38;;;;;;;9.43;71.68;99389.59;4920674;28;101116;-83
2022/11/16 02:42:35;;;;;;;65.38;43.17;;;;;;;9.51;71.65;99397.94;4919847;28;96919;-83
2022/11/16 02:45:05;;;;;;;62.75;42.95;;;;;;;9.52;71.85;99392.63;4943044;28;97008;-83
2022/11/16 02:47:32;;;;;;;61.47;41.65;;;;;;;9.55;71.55;99401.28;4932060;28;101804;-83
2022/11/16 02:50:02;;;;;;;61.50;43.40;;;;;;;9.49;71.50;99376.22;4960759;28;101479;-83
2022/11/16 02:52:28;;;;;;;65.43;44.42;;;;;;;9.59;71.86;99400.22;4930016;28;97163;-82
2022/11/16 02:54:54;;;;;;;64.50;44.88;;;;;;;9.49;71.24;99376.22;4941405;28;97337;-82
2022/11/16 02:57:28;;;;;;;63.30;42.92;;;;;;;9.57;71.69;99394.19;4933937;28;98313;-82
2022/11/16 02:59:56;;;;;;;59.22;42.58;;;;;;;9.58;71.71;99395.91;4953624;28;99667;-82
2022/11/16 03:02:34;;;;;;;59.13;41.10;;;;;;;9.57;71.41;99383.72;4937998;28;97217;-83
2022/11/16 03:05:10;;;;;;;58.15;41.20;;;;;;;9.56;71.36;99385.47;4960065;28;96894;-82
2022/11/16 03:07:49;;;;;;;64.95;42.25;;;;;;;9.45;71.38;99367.66;4964574;28;101904;-82
2022/11/16 03:11:58;;;;;;;61.80;41.10;;;;;;;9.46;71.36;99371.13;4952096;28;101624;-82
2022/11/16 03:13:07;;;;;;;60.22;42.42;;;;;;;9.40;71.52;99377.47;4935231;28;96919;-81
2022/11/16 03:15:35;;;;;;;62.10;42.28;;;;;;;9.38;71.68;99367.97;4953558;28;97598;-82
2022/11/16 03:18:01;;;;;;;61.30;40.58;;;;;;;9.36;71.76;99382.91;4936085;28;100911;-81
2022/11/16 03:20:30;;;;;;;58.50;41.75;;;;;;;9.32;72.00;99381.34;4953577;28;101265;-82
2022/11/16 03:22:59;;;;;;;61.65;42.60;;;;;;;9.32;71.85;99383.97;4946007;28;97147;-82
2022/11/16 03:25:28;;;;;;;61.58;43.53;;;;;;;9.26;71.42;99383.31;4959710;28;97140;-83
2022/11/16 03:28:14;;;;;;;63.35;42.80;;;;;;;9.26;71.42;99385.06;4970964;28;101715;-81
2022/11/16 03:30:45;;;;;;;68.15;46.08;;;;;;;9.15;71.69;99376.84;4947068;28;101649;-83
2022/11/16 03:33:33;;;;;;;70.22;44.70;;;;;;;9.12;71.31;99385.66;4937149;28;96847;-81
2022/11/16 03:36:17;;;;;;;65.90;44.28;;;;;;;9.09;71.60;99390.19;4962249;28;97594;-82
2022/11/16 03:38:43;;;;;;;72.85;46.13;;;;;;;8.93;71.76;99390.84;4938454;28;98341;-82
2022/11/16 03:41:09;;;;;;;69.22;45.03;;;;;;;8.88;71.60;99386.72;4938698;28;101565;-82
2022/11/16 03:43:37;;;;;;;71.60;46.42;;;;;;;8.79;71.75;99387.94;4936141;28;97159;-83
2022/11/16 03:46:03;;;;;;;72.85;47.10;;;;;;;8.85;71.88;99385.06;4945731;28;96967;-82
2022/11/16 03:48:37;;;;;;;70.43;47.80;;;;;;;8.89;71.98;99380.56;4954022;28;101024;-82
2022/11/16 03:51:09;;;;;;;73.43;47.00;;;;;;;8.88;71.27;99373.63;4937964;28;101600;-82
2022/11/16 03:53:36;;;;;;;72.32;46.15;;;;;;;8.71;70.78;99348.16;4962961;28;96928;-82
2022/11/16 03:56:02;;;;;;;71.85;43.65;;;;;;;8.81;71.33;99383.47;4947804;28;96821;-82
2022/11/16 03:58:28;;;;;;;68.63;43.72;;;;;;;8.82;70.80;99385.22;4958199;28;101092;-84
2022/11/16 04:00:54;;;;;;;67.43;43.42;;;;;;;8.77;70.75;99371.44;4943789;28;101705;-81
2022/11/16 04:03:20;;;;;;;61.78;40.75;;;;;;;8.71;70.63;99362.09;4938291;28;97020;-81
2022/11/16 04:25:15;;;;;;;60.42;38.90;;;;;;;8.45;70.58;99350.06;4961325;28;96837;-82
2022/11/16 04:37:47;;;;;;;55.33;37.70;;;;;;;8.44;70.60;99353.63;4943070;28;101034;-82
2022/11/16 04:38:40;;;;;;;52.30;36.58;;;;;;;8.57;69.98;99362.66;4951630;28;96703;-83
2022/11/16 04:42:12;;;;;;;51.85;35.50;;;;;;;8.58;70.35;99368.72;4933876;28;101729;-82
2022/11/16 04:43:51;;;;;;;51.88;35.33;;;;;;;8.50;69.95;99360.38;4947912;28;98250;-82
2022/11/16 04:49:01;;;;;;;53.03;35.30;;;;;;;8.47;70.04;99361.34;4956104;28;97057;-82
2022/11/16 04:51:26;;;;;;;54.55;34.83;;;;;;;8.47;70.07;99356.09;4969073;28;101378;-82
2022/11/16 04:53:52;;;;;;;53.20;35.63;;;;;;;8.45;70.05;99351.84;4932166;28;101381;-82
2022/11/16 04:56:20;;;;;;;53.03;34.10;;;;;;;8.45;70.30;99347.47;4958348;28;96886;-82
2022/11/16 04:58:46;;;;;;;48.53;35.10;;;;;;;8.46;70.24;99350.94;4936052;28;97329;-82
2022/11/16 05:01:12;;;;;;;49.00;33.65;;;;;;;8.45;70.46;99351.84;4978993;28;101569;-84
2022/11/16 05:03:37;;;;;;;48.40;33.38;;;;;;;8.37;70.37;99336.44;4958325;28;97815;-82
2022/11/16 05:06:03;;;;;;;43.63;31.58;;;;;;;8.39;69.91;99342.50;4970528;28;96786;-82
2022/11/16 05:08:29;;;;;;;47.53;32.88;;;;;;;8.43;69.93;99338.81;4935369;28;96959;-82
2022/11/16 05:10:55;;;;;;;46.40;32.83;;;;;;;8.49;69.88;99338.56;4954221;28;101393;-82
2022/11/16 05:13:20;;;;;;;45.45;31.20;;;;;;;8.49;70.22;99342.94;4919976;28;101202;-82
2022/11/16 05:15:48;;;;;;;47.17;30.88;;;;;;;8.21;70.26;99317.91;4969023;28;96857;-82
2022/11/16 05:18:15;;;;;;;42.25;29.38;;;;;;;8.28;70.28;99334.19;4937329;28;96838;-82
2022/11/16 05:26:19;;;;;;;42.25;28.02;;;;;;;8.19;70.30;99331.94;4928555;28;96869;-82
2022/11/16 05:28:46;;;;;;;41.53;28.73;;;;;;;8.21;70.67;99330.13;4957983;28;97420;-82
2022/11/16 05:31:12;;;;;;;39.50;28.20;;;;;;;8.28;70.17;99334.19;4948042;28;101228;-82
2022/11/16 05:33:37;;;;;;;38.72;28.42;;;;;;;8.26;70.08;99336.88;4928739;28;101735;-82
2022/11/16 05:36:03;;;;;;;39.80;28.20;;;;;;;8.19;70.44;99340.63;4920496;28;97057;-83
2022/11/16 05:38:29;;;;;;;39.40;27.85;;;;;;;8.19;70.60;99340.63;4952363;28;96958;-82
2022/11/16 05:40:58;;;;;;;42.10;27.50;;;;;;;8.13;70.52;99327.81;4936409;28;101109;-82
2022/11/16 05:43:23;;;;;;;42.00;29.55;;;;;;;8.14;70.61;99338.22;4933418;28;101470;-82
2022/11/16 05:46:00;;;;;;;41.33;28.77;;;;;;;8.18;70.56;99336.34;4965013;28;97850;-82
2022/11/16 05:48:25;;;;;;;42.33;28.75;;;;;;;8.14;70.44;99327.75;4961913;28;96828;-82
2022/11/16 05:50:57;;;;;;;46.70;27.70;;;;;;;8.25;70.81;99332.53;4947656;28;100625;-82
2022/11/16 05:53:24;;;;;;;43.58;29.27;;;;;;;8.27;70.58;99328.13;4966710;28;101002;-81
2022/11/16 05:55:49;;;;;;;44.83;30.05;;;;;;;8.25;70.20;99324.69;4966897;28;97422;-81
2022/11/16 05:58:16;;;;;;;42.60;29.60;;;;;;;8.11;70.92;99314.78;4946571;28;97443;-82
2022/11/16 06:00:42;;;;;;;45.40;29.35;;;;;;;8.22;70.61;99326.59;4915471;28;101550;-81
2022/11/16 06:03:09;;;;;;;45.55;29.92;;;;;;;8.22;70.36;99313.53;4953826;28;100522;-81
2022/11/16 06:05:35;;;;;;;48.80;30.00;;;;;;;8.20;70.68;99318.78;4935130;28;96917;-81
2022/11/16 06:08:19;;;;;;;47.78;30.13;;;;;;;8.24;70.70;99333.47;4979282;28;96931;-82
2022/11/16 06:10:47;;;;;;;46.72;29.42;;;;;;;8.24;71.02;99324.78;4932073;28;100242;-82
2022/11/16 06:13:14;;;;;;;49.88;30.50;;;;;;;8.24;70.81;99327.41;4935289;28;101619;-84
2022/11/16 06:15:41;;;;;;;48.38;30.65;;;;;;;8.26;70.39;99328.16;4953676;28;96846;-83
2022/11/16 06:18:08;;;;;;;50.85;31.30;;;;;;;8.20;70.60;99310.94;4927288;28;97256;-82
2022/11/16 06:20:34;;;;;;;47.08;29.90;;;;;;;8.25;70.70;99305.56;4938646;28;101755;-85
2022/11/16 06:23:00;;;;;;;47.88;29.80;;;;;;;8.13;70.76;99301.66;4942336;28;101995;-83
2022/11/16 06:25:26;;;;;;;45.15;29.50;;;;;;;8.05;70.98;99291.50;4963741;28;97998;-84
2022/11/16 06:27:52;;;;;;;46.08;29.23;;;;;;;8.08;70.86;99293.16;4965078;28;96836;-82
2022/11/16 06:30:21;;;;;;;43.67;27.17;;;;;;;8.19;71.15;99316.25;4942586;28;101555;-90
2022/11/16 06:32:47;;;;;;;43.28;28.00;;;;;;;8.17;70.86;99313.69;4918868;28;100091;-87
2022/11/16 06:35:14;;;;;;;48.25;29.58;;;;;;;8.18;71.15;99304.13;4932979;28;97101;-86
2022/11/16 06:37:39;;;;;;;46.38;28.20;;;;;;;8.17;71.01;99284.94;4956851;28;96822;-84
2022/11/16 06:40:07;;;;;;;42.90;28.13;;;;;;;8.14;70.96;99291.16;4961786;28;101181;-86
2022/11/16 06:42:35;;;;;;;45.58;28.02;;;;;;;8.15;70.98;99303.31;4934020;28;100788;-87
2022/11/16 06:45:02;;;;;;;44.78;27.95;;;;;;;8.04;71.38;99274.13;4948297;28;97346;-86
2022/11/16 06:47:33;;;;;;;51.33;28.75;;;;;;;8.14;71.38;99292.91;4918053;28;97791;-88
2022/11/16 06:50:00;;;;;;;48.83;28.67;;;;;;;8.21;71.16;99293.53;4921362;28;101377;-86
2022/11/16 06:52:25;;;;;;;49.92;28.70;;;;;;;8.21;71.04;99293.53;4957082;28;100376;-85
2022/11/16 06:54:51;;;;;;;48.65;30.15;;;;;;;8.26;71.00;99302.00;4949165;28;97882;-85
2022/11/16 06:57:16;;;;;;;47.58;28.73;;;;;;;8.26;71.29;99299.41;4956547;28;97210;-86
2022/11/16 06:59:42;;;;;;;50.40;28.55;;;;;;;8.14;71.39;99278.09;4952681;28;98166;-87
2022/11/16 07:02:11;;;;;;;46.65;27.50;;;;;;;8.11;70.97;99279.97;4930043;28;101450;-85
2022/11/16 07:04:38;;;;;;;50.92;27.70;;;;;;;8.24;71.20;99301.25;4948256;28;97162;-86
2022/11/16 07:07:04;;;;;;;48.38;27.88;;;;;;;8.16;71.66;99291.09;4932840;28;97373;-85
2022/11/16 07:09:31;;;;;;;46.90;27.55;;;;;;;8.10;71.06;99273.88;4934470;28;100536;-85
2022/11/16 07:11:56;;;;;;;53.30;28.58;;;;;;;8.27;71.40;99306.34;4926503;28;101469;-82
2022/11/16 07:14:22;;;;;;;48.92;27.17;;;;;;;8.30;71.10;99304.44;4965863;28;97082;-87
2022/11/16 07:16:48;;;;;;;52.55;28.45;;;;;;;8.13;71.20;99272.91;4922934;28;97371;-84
2022/11/16 07:19:13;;;;;;;48.50;28.73;;;;;;;8.21;71.22;99289.16;4916327;28;101169;-84
2022/11/16 07:21:40;;;;;;;49.20;27.50;;;;;;;8.30;71.24;99312.31;4963990;28;100751;-84
2022/11/16 07:24:11;;;;;;;51.65;28.70;;;;;;;8.24;71.73;99312.56;4966952;28;97231;-85
2022/11/16 07:26:37;;;;;;;52.38;28.27;;;;;;;8.13;71.83;99305.13;4943872;28;97171;-82
2022/11/16 07:29:10;;;;;;;56.42;29.02;;;;;;;8.10;71.60;99294.78;4943043;28;102229;-84
2022/11/16 07:31:40;;;;;;;53.50;27.95;;;;;;;8.21;71.79;99307.44;4929529;28;101602;-85
2022/11/16 07:34:41;;;;;;;52.40;27.58;;;;;;;8.28;72.07;99310.66;4924733;28;97420;-85
2022/11/16 07:37:11;;;;;;;55.28;28.88;;;;;;;8.28;71.77;99298.44;4960011;28;96893;-84
2022/11/16 07:39:38;;;;;;;56.88;28.83;;;;;;;8.18;72.18;99293.66;4946067;28;101554;-85
2022/11/16 07:42:10;;;;;;;61.38;28.40;;;;;;;8.20;71.92;99284.81;4962533;28;101530;-83
2022/11/16 07:44:54;;;;;;;58.78;28.17;;;;;;;8.27;72.02;99299.34;4936519;28;97138;-85
2022/11/16 07:47:19;;;;;;;54.00;28.15;;;;;;;8.19;72.42;99292.72;4947215;28;97188;-84
2022/11/16 07:49:47;;;;;;;55.88;28.05;;;;;;;8.21;72.16;99304.84;4959781;28;101248;-85
2022/11/16 07:52:16;;;;;;;56.07;28.47;;;;;;;8.11;72.33;99299.09;4967615;28;101599;-85
2022/11/16 07:54:49;;;;;;;53.28;26.70;;;;;;;8.11;72.83;99314.78;4952374;28;96784;-85
2022/11/16 07:57:15;;;;;;;56.67;27.58;;;;;;;8.10;72.77;99307.03;4951430;28;96841;-85
2022/11/16 07:59:42;;;;;;;56.83;28.10;;;;;;;8.13;73.02;99304.28;4953980;28;101220;-85
2022/11/16 08:02:09;;;;;;;57.88;27.83;;;;;;;8.07;72.87;99300.16;4941732;28;101191;-90
2022/11/16 08:04:38;;;;;;;59.92;27.85;;;;;;;8.10;73.03;99300.03;4968406;28;96848;-94
2022/11/16 08:07:05;;;;;;;55.78;28.02;;;;;;;7.94;73.09;99273.66;4933857;28;97161;-89
2022/11/16 08:09:36;;;;;;;59.78;29.25;;;;;;;8.06;73.24;99293.22;4952124;28;99835;-92
2022/11/16 08:12:02;;;;;;;62.22;28.63;;;;;;;7.96;73.65;99304.09;4922905;28;100390;-94
2022/11/16 08:14:28;;;;;;;61.63;29.50;;;;;;;8.03;73.84;99305.56;4960363;28;96919;-93
2022/11/16 08:16:55;;;;;;;54.63;27.33;;;;;;;8.09;73.15;99305.34;4935984;28;96979;-93
2022/11/16 08:19:21;;;;;;;59.05;27.92;;;;;;;8.14;73.31;99311.19;4946123;28;101448;-88
2022/11/16 08:21:46;;;;;;;61.55;28.95;;;;;;;8.08;73.26;99293.16;4972889;28;97321;-89
2022/11/16 08:24:14;;;;;;;56.15;27.13;;;;;;;8.18;73.40;99310.19;4959778;28;97050;-93
2022/11/16 08:26:41;;;;;;;55.97;27.08;;;;;;;7.94;73.76;99280.63;4923127;28;97143;-93
2022/11/16 08:29:10;;;;;;;61.25;28.80;;;;;;;7.92;72.99;99269.41;4951826;28;100201;-95
2022/11/16 08:31:39;;;;;;;53.40;27.20;;;;;;;8.08;73.52;99311.44;4925477;28;101179;-94
2022/11/16 08:34:10;;;;;;;60.47;29.77;;;;;;;8.03;73.43;99305.56;4956228;28;96992;-96
2022/11/16 08:36:39;;;;;;;65.07;30.10;;;;;;;7.82;73.38;99271.50;4937308;28;96912;-95
2022/11/16 08:39:05;;;;;;;61.30;30.33;;;;;;;8.08;73.54;99307.06;4934101;28;100254;-95
2022/11/16 08:41:34;;;;;;;62.67;27.65;;;;;;;8.30;73.14;99322.75;4918850;28;101867;-95
2022/11/16 08:44:00;;;;;;;64.40;30.40;;;;;;;8.21;73.04;99306.59;4921341;28;96829;-94
2022/11/16 08:46:26;;;;;;;66.68;30.13;;;;;;;8.30;72.98;99319.28;4952594;28;97302;-96
2022/11/16 08:49:00;;;;;;;66.93;31.80;;;;;;;8.08;73.16;99283.53;4937308;28;101425;-90
2022/11/16 08:51:26;;;;;;;63.55;28.55;;;;;;;8.32;73.08;99323.56;4915178;28;100767;-91
2022/11/16 08:53:58;;;;;;;68.13;30.60;;;;;;;8.30;73.51;99324.53;4931972;28;97269;-91
2022/11/16 08:56:26;;;;;;;67.13;30.30;;;;;;;8.29;73.38;99320.19;4953860;28;97019;-91
2022/11/16 08:58:53;;;;;;;62.78;31.98;;;;;;;8.33;73.24;99321.78;4934535;28;100389;-91
2022/11/16 09:01:21;;;;;;;64.72;30.40;;;;;;;8.39;73.45;99325.03;4972345;28;101127;-91
2022/11/16 09:03:46;;;;;;;69.82;30.95;;;;;;;8.24;73.42;99299.47;4937033;28;96923;-91
2022/11/16 09:06:12;;;;;;;67.78;29.75;;;;;;;8.40;73.10;99323.25;4969667;28;96896;-90
2022/11/16 09:08:40;;;;;;;63.65;29.85;;;;;;;8.43;73.07;99325.75;4946545;28;98356;-90
2022/11/16 09:11:11;;;;;;;63.45;29.88;;;;;;;8.31;73.09;99318.38;4945823;28;101561;-91
2022/11/16 09:13:37;;;;;;;59.95;27.83;;;;;;;8.09;73.04;99295.72;4986495;28;97447;-89
2022/11/16 09:16:03;;;;;;;54.42;27.58;;;;;;;8.14;73.12;99313.81;4953466;28;96875;-90
2022/11/16 09:18:29;;;;;;;52.63;26.30;;;;;;;8.24;73.78;99337.84;4935754;28;101218;-91
2022/11/16 09:20:55;;;;;;;58.22;27.15;;;;;;;8.16;73.35;99328.53;4931162;28;101329;-91
2022/11/16 09:23:21;;;;;;;48.00;25.27;;;;;;;8.28;72.74;99349.88;4932579;28;97192;-90
2022/11/16 09:25:47;;;;;;;49.63;25.13;;;;;;;8.28;73.26;99339.41;4934571;28;97968;-89
2022/11/16 09:28:17;;;;;;;45.05;24.30;;;;;;;8.35;72.58;99346.97;4958411;28;98313;-90
2022/11/16 09:30:43;;;;;;;47.53;25.15;;;;;;;8.36;72.53;99342.59;4950366;28;98145;-90
2022/11/16 09:33:09;;;;;;;55.13;25.55;;;;;;;8.31;72.96;99336.69;4916498;28;97348;-90
2022/11/16 09:35:34;;;;;;;58.05;27.52;;;;;;;8.34;72.97;99339.16;4950900;28;97296;-91
2022/11/16 09:37:59;;;;;;;63.03;28.90;;;;;;;8.17;72.93;99311.06;4933316;28;101522;-90
2022/11/16 09:40:30;;;;;;;58.30;30.13;;;;;;;8.32;73.30;99339.25;4944899;28;101034;-89
2022/11/16 09:43:05;;;;;;;64.75;30.55;;;;;;;8.28;73.15;99321.13;4943450;28;97152;-90
2022/11/16 09:45:51;;;;;;;64.78;29.10;;;;;;;8.34;73.06;99332.16;4927804;28;97246;-91
2022/11/16 09:48:17;;;;;;;61.80;28.17;;;;;;;8.17;73.04;99303.25;4960981;28;100171;-89
2022/11/16 09:51:08;;;;;;;61.72;26.20;;;;;;;8.37;72.97;99332.03;4950927;28;97118;-87
2022/11/16 09:53:41;;;;;;;60.72;26.17;;;;;;;8.27;72.96;99309.81;4934951;28;96764;-85
2022/11/16 09:56:11;;;;;;;54.47;26.15;;;;;;;8.27;72.94;99311.59;4955288;28;97609;-84
2022/11/16 09:58:47;;;;;;;53.45;25.02;;;;;;;8.34;72.74;99318.25;4952060;28;101327;-84
2022/11/16 10:01:42;;;;;;;56.58;24.40;;;;;;;8.28;73.40;99321.97;4906566;28;101550;-83
2022/11/16 10:04:21;;;;;;;50.28;23.27;;;;;;;8.22;72.89;99306.53;4943500;28;97227;-83
2022/11/16 10:06:56;;;;;;;52.58;23.95;;;;;;;8.16;73.05;99305.00;4944445;28;96750;-84
2022/11/16 10:09:21;;;;;;;47.22;22.17;;;;;;;8.13;72.91;99305.13;4974229;28;97957;-84
2022/11/16 10:11:50;;;;;;;48.00;22.55;;;;;;;8.21;72.74;99304.00;4932441;28;99429;-84
2022/11/16 10:14:21;;;;;;;46.88;22.98;;;;;;;8.22;72.74;99300.44;4983676;28;97181;-83
2022/11/16 10:16:56;;;;;;;48.95;22.67;;;;;;;8.04;72.90;99284.59;4946952;28;96799;-83
2022/11/16 10:19:51;;;;;;;45.90;21.85;;;;;;;8.14;73.51;99295.53;4946641;28;97380;-84
2022/11/16 10:22:39;;;;;;;48.05;23.13;;;;;;;8.15;73.02;99292.00;4960433;28;101195;-83
2022/11/16 10:25:20;;;;;;;55.83;23.85;;;;;;;8.13;73.27;99276.38;4953689;28;96771;-83
2022/11/16 10:28:12;;;;;;;48.13;21.80;;;;;;;8.07;72.94;99273.16;4935110;28;97349;-84
2022/11/16 10:30:39;;;;;;;;;;;;;;;8.16;73.43;99293.72;4960827;28;101484;-84
2022/11/16 10:33:09;;;;;;;47.28;22.10;;;;;;;8.14;73.26;99274.59;4931774;28;101140;-84
2022/11/16 10:35:44;;;;;;;46.85;21.77;;;;;;;8.19;72.76;99280.50;4968032;28;96781;-84
2022/11/16 10:38:15;;;;;;;53.63;21.92;;;;;;;8.13;72.82;99275.53;4943765;28;97325;-83
2022/11/16 10:40:45;;;;;;;45.97;21.15;;;;;;;8.10;72.57;99266.03;4948089;28;101641;-84
2022/11/16 10:43:16;;;;;;;42.70;19.60;;;;;;;7.98;73.07;99265.69;4959129;28;98030;-82
2022/11/16 10:46:03;;;;;;;44.38;21.15;;;;;;;7.96;73.28;99273.59;4948941;28;97201;-85
2022/11/16 10:48:50;;;;;;;47.50;21.73;;;;;;;8.02;73.00;99272.50;4978911;28;96930;-83
2022/11/16 10:51:16;;;;;;;47.33;22.50;;;;;;;8.01;73.17;99268.19;4957419;28;101574;-82
2022/11/16 10:53:43;;;;;;;43.13;22.10;;;;;;;8.06;73.01;99282.78;4942420;28;101828;-83
2022/11/16 10:56:31;;;;;;;46.67;23.17;;;;;;;8.01;72.87;99269.03;4931370;28;97352;-83
2022/11/16 10:59:05;;;;;;;48.10;22.77;;;;;;;7.96;73.35;99263.13;4950781;28;97155;-82
2022/11/16 11:01:46;;;;;;;42.55;20.88;;;;;;;7.81;72.87;99261.16;4928254;28;101104;-84
2022/11/16 11:04:28;;;;;;;44.10;21.13;;;;;;;7.88;73.45;99273.91;4958477;28;97970;-84
2022/11/16 11:06:55;;;;;;;43.72;21.77;;;;;;;7.91;73.75;99268.56;4959874;28;97147;-85
2022/11/16 11:09:25;;;;;;;46.33;22.50;;;;;;;7.95;73.16;99269.28;4957734;28;97260;-83
2022/11/16 11:15:03;;;;;;;45.17;21.48;;;;;;;7.93;73.44;99269.34;4950919;28;98206;-83
2022/11/16 11:17:30;;;;;;;43.45;20.55;;;;;;;7.95;72.73;99277.13;4933335;28;96996;-83
2022/11/16 11:20:25;;;;;;;44.58;22.08;;;;;;;7.96;72.83;99259.69;4918173;28;96813;-82
2022/11/16 11:22:57;;;;;;;40.38;19.77;;;;;;;7.87;72.97;99253.06;4925984;28;97765;-82
2022/11/16 11:25:35;;;;;;;43.88;20.23;;;;;;;7.96;72.92;99251.84;4963837;28;101550;-82
2022/11/16 11:28:22;;;;;;;39.47;20.73;;;;;;;7.98;72.80;99248.25;4953839;28;97317;-81
2022/11/16 11:31:02;;;;;;;42.55;20.85;;;;;;;8.01;72.56;99252.50;4964715;28;97412;-83
2022/11/16 11:33:34;;;;;;;38.88;21.38;;;;;;;7.99;72.13;99243.88;4944654;28;97749;-82
2022/11/16 11:36:01;;;;;;;46.80;22.92;;;;;;;8.05;72.74;99260.16;4928083;28;101186;-82
2022/11/16 11:38:27;;;;;;;40.55;21.92;;;;;;;8.00;72.26;99256.00;4938943;28;97663;-82
2022/11/16 11:41:03;;;;;;;46.35;22.42;;;;;;;7.99;72.51;99252.56;4924837;28;97480;-83
2022/11/16 11:43:30;;;;;;;41.45;21.85;;;;;;;8.02;72.48;99248.97;4933097;28;101183;-86
2022/11/16 11:46:11;;;;;;;44.58;21.80;;;;;;;8.06;72.29;99256.66;4949662;28;100638;-84
2022/11/16 11:48:50;;;;;;;45.60;24.10;;;;;;;8.10;72.25;99255.59;4952056;28;97325;-83
2022/11/16 11:51:32;;;;;;;43.90;22.73;;;;;;;8.03;72.37;99240.22;4951341;28;96855;-83
2022/11/16 11:53:59;;;;;;;50.05;24.77;;;;;;;8.09;72.09;99246.06;4933727;28;101833;-82
2022/11/16 11:56:26;;;;;;;47.28;22.50;;;;;;;8.00;72.29;99222.03;4965838;28;101408;-82
2022/11/16 11:58:52;;;;;;;44.55;23.30;;;;;;;8.10;72.57;99239.91;4949536;28;97921;-84
2022/11/16 12:01:43;;;;;;;49.35;24.35;;;;;;;8.13;72.34;99239.78;4937297;28;98172;-84
2022/11/16 12:04:30;;;;;;;48.22;24.23;;;;;;;8.10;72.72;99239.91;4953404;28;99489;-81
2022/11/16 12:07:22;;;;;;;46.35;24.05;;;;;;;8.05;72.57;99222.72;4976827;28;101006;-85
2022/11/16 12:09:56;;;;;;;49.20;23.77;;;;;;;8.11;72.16;99222.47;4951669;28;97391;-82
2022/11/16 12:12:50;;;;;;;44.58;23.08;;;;;;;7.98;72.78;99223.88;4974340;28;97164;-81
2022/11/16 12:15:36;;;;;;;47.20;24.40;;;;;;;8.08;72.61;99230.44;4967337;28;101723;-82
2022/11/16 12:18:25;;;;;;;38.88;21.88;;;;;;;8.05;72.49;99227.94;4940492;28;101664;-81
2022/11/16 12:21:16;;;;;;;47.95;25.38;;;;;;;7.90;72.16;99209.34;4932688;28;97926;-81